createdAt,value
2018-12-04T00:01:44.628Z,33.78
2018-12-04T00:04:13.529Z,36.00
2018-12-04T00:06:42.708Z,34.05
2018-12-04T00:09:11.320Z,34.40
2018-12-04T00:11:39.956Z,33.88
2018-12-04T00:14:08.481Z,34.25
2018-12-04T00:16:37.000Z,34.40
2018-12-04T00:19:05.528Z,34.98
2018-12-04T00:21:34.005Z,34.70
2018-12-04T00:24:02.817Z,36.25
2018-12-04T00:26:31.452Z,33.58
2018-12-04T00:29:00.680Z,34.63
2018-12-04T00:31:29.168Z,33.92
2018-12-04T00:33:57.668Z,33.23
2018-12-04T00:36:26.560Z,33.92
2018-12-04T00:38:55.393Z,33.78
2018-12-04T00:41:23.907Z,34.73
2018-12-04T00:43:52.367Z,35.63
2018-12-04T00:46:20.871Z,34.92
2018-12-04T00:48:49.412Z,34.88
2018-12-04T00:51:18.443Z,35.47
2018-12-04T00:53:46.931Z,37.50
2018-12-04T00:56:15.755Z,35.70
2018-12-04T00:58:44.227Z,35.92
2018-12-04T01:01:12.742Z,37.10
2018-12-04T01:03:41.367Z,35.68
2018-12-04T01:06:09.854Z,34.90
2018-12-04T01:08:38.442Z,34.90
2018-12-04T01:11:07.047Z,34.33
2018-12-04T01:13:35.619Z,33.73
2018-12-04T01:17:07.479Z,34.40
2018-12-04T01:19:35.983Z,34.53
2018-12-04T01:22:05.012Z,35.23
2018-12-04T01:24:33.661Z,36.68
2018-12-04T01:27:02.435Z,37.13
2018-12-04T01:29:30.919Z,35.95
2018-12-04T01:31:59.579Z,35.00
2018-12-04T01:34:28.272Z,37.50
2018-12-04T01:36:56.755Z,37.03
2018-12-04T01:39:25.487Z,37.48
2018-12-04T01:41:53.966Z,35.78
2018-12-04T01:44:23.510Z,35.58
2018-12-04T01:46:52.023Z,33.80
2018-12-04T01:49:20.530Z,33.70
2018-12-04T01:51:49.003Z,32.85
2018-12-04T01:54:17.803Z,32.67
2018-12-04T01:56:46.618Z,35.52
2018-12-04T01:59:15.231Z,35.40
2018-12-04T02:01:43.778Z,31.62
2018-12-04T02:04:12.243Z,31.00
2018-12-04T02:06:41.100Z,33.48
2018-12-04T02:09:09.587Z,31.40
2018-12-04T02:11:38.150Z,30.65
2018-12-04T02:14:06.927Z,29.95
2018-12-04T02:16:35.426Z,30.68
2018-12-04T02:19:04.669Z,28.45
2018-12-04T02:21:33.206Z,31.00
2018-12-04T02:24:01.679Z,29.63
2018-12-04T02:26:30.186Z,30.00
2018-12-04T02:28:58.718Z,30.35
2018-12-04T02:31:27.335Z,31.37
2018-12-04T02:33:55.839Z,31.90
2018-12-04T02:36:25.195Z,31.37
2018-12-04T02:38:53.674Z,33.13
2018-12-04T02:41:22.468Z,33.23
2018-12-04T02:43:51.007Z,32.35
2018-12-04T02:46:19.493Z,34.03
2018-12-04T02:48:48.278Z,32.70
2018-12-04T02:51:16.831Z,33.53
2018-12-04T02:53:45.419Z,35.30
2018-12-04T02:56:14.199Z,36.35
2018-12-04T02:58:42.722Z,34.95
2018-12-04T03:01:11.224Z,36.05
2018-12-04T03:03:39.982Z,34.60
2018-12-04T03:06:08.530Z,36.58
2018-12-04T03:08:37.010Z,36.55
2018-12-04T03:11:05.505Z,35.88
2018-12-04T03:13:34.111Z,43.25
2018-12-04T03:16:02.582Z,45.28
2018-12-04T03:18:31.062Z,33.67
2018-12-04T03:20:59.559Z,38.35
2018-12-04T03:23:28.147Z,38.40
2018-12-04T03:25:56.999Z,39.38
2018-12-04T03:28:25.950Z,37.10
2018-12-04T03:30:54.705Z,36.25
2018-12-04T03:33:36.920Z,37.45
2018-12-04T03:36:05.770Z,37.88
2018-12-04T03:38:34.589Z,36.75
2018-12-04T03:41:03.319Z,37.38
2018-12-04T03:43:32.131Z,45.38
2018-12-04T03:46:01.075Z,36.20
2018-12-04T03:48:29.607Z,44.30
2018-12-04T03:50:58.182Z,35.03
2018-12-04T03:53:26.674Z,37.28
2018-12-04T03:55:55.171Z,41.85
2018-12-04T03:58:24.027Z,39.35
2018-12-04T04:00:52.498Z,41.00
2018-12-04T04:03:21.015Z,39.27
2018-12-04T04:05:49.499Z,42.33
2018-12-04T04:08:17.960Z,44.53
2018-12-04T04:13:45.347Z,50.03
2018-12-04T04:16:13.851Z,45.33
2018-12-04T04:18:57.705Z,51.83
2018-12-04T04:21:26.522Z,47.08
2018-12-04T04:23:55.251Z,48.15
2018-12-04T04:26:23.967Z,64.05
2018-12-04T04:28:53.038Z,45.90
2018-12-04T04:31:21.831Z,45.50
2018-12-04T04:33:50.839Z,48.00
2018-12-04T04:36:19.537Z,47.58
2018-12-04T04:38:48.391Z,46.05
2018-12-04T04:41:17.122Z,45.40
2018-12-04T04:43:45.947Z,48.48
2018-12-04T04:46:14.767Z,47.05
2018-12-04T04:48:43.440Z,49.83
2018-12-04T04:51:12.101Z,46.05
2018-12-04T04:53:40.767Z,47.17
2018-12-04T04:56:09.522Z,48.52
2018-12-04T04:58:38.170Z,49.70
2018-12-04T05:01:06.827Z,46.35
2018-12-04T05:03:35.612Z,42.20
2018-12-04T05:06:05.050Z,42.35
2018-12-04T05:08:34.003Z,46.75
2018-12-04T05:11:02.715Z,43.00
2018-12-04T05:13:31.363Z,60.50
2018-12-04T05:16:00.691Z,46.45
2018-12-04T05:18:29.644Z,45.45
2018-12-04T05:20:58.319Z,44.38
2018-12-04T05:23:27.663Z,47.48
2018-12-04T05:25:56.675Z,47.30
2018-12-04T05:28:25.371Z,47.33
2018-12-04T05:30:54.061Z,47.20
2018-12-04T05:33:22.715Z,48.98
2018-12-04T05:35:51.339Z,49.10
2018-12-04T05:38:20.086Z,45.83
2018-12-04T05:40:48.786Z,45.38
2018-12-04T05:43:17.366Z,45.65
2018-12-04T05:45:46.230Z,44.27
2018-12-04T05:48:14.934Z,47.70
2018-12-04T05:50:44.534Z,46.18
2018-12-04T05:53:24.444Z,47.73
2018-12-04T05:55:54.430Z,46.25
2018-12-04T05:58:23.110Z,43.23
2018-12-04T06:00:51.818Z,46.23
2018-12-04T06:03:20.470Z,50.60
2018-12-04T06:05:49.181Z,47.65
2018-12-04T06:08:17.842Z,48.30
2018-12-04T06:10:46.857Z,45.75
2018-12-04T06:13:15.465Z,46.15
2018-12-04T06:15:44.197Z,45.98
2018-12-04T06:18:13.205Z,42.40
2018-12-04T06:20:41.904Z,43.75
2018-12-04T06:23:13.061Z,40.40
2018-12-04T06:25:43.241Z,42.13
2018-12-04T06:28:12.553Z,39.88
2018-12-04T06:30:41.377Z,38.88
2018-12-04T06:33:18.241Z,41.73
2018-12-04T06:35:47.461Z,40.30
2018-12-04T06:38:17.166Z,41.63
2018-12-04T06:40:47.021Z,44.33
2018-12-04T06:43:16.917Z,40.47
2018-12-04T06:45:48.133Z,39.25
2018-12-04T06:48:18.001Z,41.68
2018-12-04T06:50:48.061Z,44.75
2018-12-04T06:53:17.800Z,50.50
2018-12-04T06:55:46.946Z,47.70
2018-12-04T06:58:18.264Z,42.48
2018-12-04T07:00:47.909Z,43.70
2018-12-04T07:03:18.280Z,42.83
2018-12-04T07:05:48.853Z,42.25
2018-12-04T07:08:19.041Z,43.20
2018-12-04T07:10:47.907Z,42.78
2018-12-04T07:13:16.821Z,40.35
2018-12-04T07:15:47.897Z,40.30
2018-12-04T07:18:17.557Z,37.78
2018-12-04T07:20:46.689Z,38.23
2018-12-04T07:23:16.977Z,39.75
2018-12-04T07:25:47.057Z,37.10
2018-12-04T07:28:16.824Z,41.83
2018-12-04T07:30:46.477Z,38.13
2018-12-04T07:33:15.501Z,41.48
2018-12-04T07:35:45.609Z,39.65
2018-12-04T07:38:15.165Z,38.98
2018-12-04T07:40:44.292Z,39.03
2018-12-04T07:43:15.144Z,36.70
2018-12-04T07:45:44.139Z,39.15
2018-12-04T07:48:15.017Z,40.48
2018-12-04T07:50:44.764Z,40.10
2018-12-04T08:58:09.511Z,36.20
2018-12-04T09:06:57.567Z,40.12
2018-12-04T09:09:27.803Z,38.13
2018-12-04T09:11:58.539Z,41.10
2018-12-04T09:14:27.579Z,40.20
2018-12-04T09:16:58.415Z,42.25
2018-12-04T09:19:28.240Z,40.50
2018-12-04T09:22:00.238Z,39.42
2018-12-04T09:24:32.099Z,41.30
2018-12-04T09:27:05.543Z,43.55
2018-12-04T09:29:34.005Z,44.30
2018-12-04T09:32:04.299Z,37.38
2018-12-04T09:34:36.251Z,40.63
2018-12-04T09:37:08.635Z,43.78
2018-12-04T09:39:41.117Z,40.90
2018-12-04T09:42:13.880Z,34.76
2018-12-04T09:44:45.879Z,33.65
2018-12-04T09:47:16.788Z,29.27
2018-12-04T09:49:48.855Z,28.52
2018-12-04T09:52:20.403Z,31.20
2018-12-04T09:54:49.947Z,28.38
2018-12-04T09:57:23.827Z,27.50
2018-12-04T09:59:53.787Z,23.92
2018-12-04T10:02:23.850Z,25.10
2018-12-04T10:04:55.415Z,24.12
2018-12-04T10:07:25.695Z,23.20
2018-12-04T10:10:00.630Z,20.97
2018-12-04T10:12:27.442Z,19.20
2018-12-04T10:14:57.658Z,20.10
2018-12-04T10:17:26.782Z,19.67
2018-12-04T10:19:56.264Z,14.73
2018-12-04T10:25:08.302Z,10.90
2018-12-04T10:27:37.058Z,9.10
2018-12-04T10:30:11.271Z,8.36
2018-12-04T10:32:40.878Z,6.08
2018-12-04T10:35:09.622Z,5.90
2018-12-04T10:37:38.510Z,5.72
2018-12-04T10:40:08.179Z,6.22
2018-12-04T10:42:37.233Z,6.15
2018-12-04T10:45:06.765Z,5.08
2018-12-04T10:47:35.937Z,4.67
2018-12-04T10:50:07.312Z,4.50
2018-12-04T10:52:36.681Z,4.78
2018-12-04T10:55:05.956Z,5.35
2018-12-04T10:57:34.677Z,4.37
2018-12-04T11:00:03.537Z,4.20
2018-12-04T11:02:36.625Z,4.35
2018-12-04T11:05:05.566Z,4.72
2018-12-04T11:07:34.277Z,5.45
2018-12-04T11:10:02.997Z,6.40
2018-12-04T11:12:31.725Z,6.05
2018-12-04T11:15:00.483Z,6.62
2018-12-04T11:17:29.945Z,5.00
2018-12-04T11:19:58.706Z,3.65
2018-12-04T11:22:27.793Z,3.95
2018-12-04T11:24:56.621Z,3.27
2018-12-04T11:27:25.497Z,2.70
2018-12-04T11:29:54.257Z,3.70
2018-12-04T11:32:22.953Z,2.83
2018-12-04T11:34:51.679Z,2.70
2018-12-04T11:37:20.765Z,2.55
2018-12-04T11:39:49.484Z,2.67
2018-12-04T11:42:19.450Z,1.93
2018-12-04T11:44:48.585Z,2.60
2018-12-04T11:47:17.281Z,2.98
2018-12-04T11:49:46.090Z,1.90
2018-12-04T11:52:14.852Z,2.45
2018-12-04T11:54:43.845Z,1.77
2018-12-04T11:57:12.353Z,2.55
2018-12-04T11:59:40.961Z,3.47
2018-12-04T12:02:10.902Z,4.90
2018-12-04T12:04:38.935Z,3.83
2018-12-04T12:07:07.921Z,4.03
2018-12-04T12:09:36.868Z,3.20
2018-12-04T12:12:05.505Z,3.15
2018-12-04T12:14:34.133Z,2.92
2018-12-04T12:17:02.763Z,3.60
2018-12-04T12:19:31.362Z,3.12
2018-12-04T12:22:00.353Z,4.00
2018-12-04T12:24:28.965Z,3.98
2018-12-04T12:26:57.941Z,4.28
2018-12-04T12:29:26.569Z,3.90
2018-12-04T12:31:55.222Z,3.35
2018-12-04T12:34:23.814Z,4.08
2018-12-04T12:36:52.422Z,4.05
2018-12-04T12:39:21.638Z,4.20
2018-12-04T12:41:50.634Z,3.98
2018-12-04T12:44:19.325Z,4.87
2018-12-04T12:46:47.927Z,4.55
2018-12-04T12:49:16.731Z,3.60
2018-12-04T12:51:45.313Z,4.62
2018-12-04T12:54:14.302Z,3.67
2018-12-04T12:56:44.101Z,3.00
2018-12-04T12:59:12.726Z,2.75
2018-12-04T13:01:41.589Z,2.90
2018-12-04T13:04:10.161Z,2.97
2018-12-04T13:06:38.779Z,3.05
2018-12-04T13:09:08.445Z,2.83
2018-12-04T13:11:37.056Z,3.65
2018-12-04T13:14:05.703Z,5.42
2018-12-04T13:16:34.315Z,5.30
2018-12-04T13:19:02.938Z,4.90
2018-12-04T13:21:31.945Z,4.65
2018-12-04T13:24:00.585Z,5.37
2018-12-04T13:26:29.302Z,4.60
2018-12-04T13:28:58.053Z,5.05
2018-12-04T13:31:26.697Z,4.05
2018-12-04T13:33:55.324Z,3.52
2018-12-04T13:36:24.251Z,3.85
2018-12-04T13:38:52.884Z,3.83
2018-12-04T13:41:21.483Z,3.85
2018-12-04T13:43:50.090Z,2.60
2018-12-04T13:46:18.685Z,3.35
2018-12-04T13:48:47.356Z,3.62
2018-12-04T13:51:16.037Z,3.10
2018-12-04T13:53:45.051Z,3.20
2018-12-04T13:56:13.710Z,3.72
2018-12-04T13:58:42.502Z,4.03
2018-12-04T14:01:11.585Z,4.42
2018-12-04T14:03:40.209Z,5.05
2018-12-04T14:06:09.661Z,5.60
2018-12-04T14:35:37.726Z,10.63
2018-12-04T14:38:06.666Z,10.65
2018-12-04T14:51:21.080Z,9.33
2018-12-04T14:56:24.712Z,10.85
2018-12-04T15:12:08.004Z,7.25
2018-12-04T15:14:41.746Z,3.45
2018-12-04T16:02:06.402Z,2.93
2018-12-04T16:04:35.049Z,3.00
2018-12-04T16:07:03.833Z,2.33
2018-12-04T16:09:32.705Z,2.90
2018-12-04T16:12:01.494Z,2.65
2018-12-04T16:14:30.638Z,2.98
2018-12-04T16:16:59.506Z,2.43
2018-12-04T16:19:28.466Z,2.30
2018-12-04T16:21:57.322Z,3.50
2018-12-04T16:24:25.965Z,3.80
2018-12-04T16:27:01.565Z,5.40
2018-12-04T16:29:30.261Z,5.47
2018-12-04T16:31:59.253Z,5.00
2018-12-04T16:34:28.152Z,3.77
2018-12-04T16:37:00.082Z,2.98
2018-12-04T16:39:28.690Z,3.37
2018-12-04T16:41:57.414Z,4.00
2018-12-04T16:44:28.014Z,3.85
2018-12-04T16:46:56.698Z,6.30
2018-12-04T16:49:26.754Z,6.75
2018-12-04T16:51:55.607Z,5.60
2018-12-04T16:54:24.798Z,5.03
2018-12-04T16:56:53.630Z,4.77
2018-12-04T16:59:24.490Z,4.15
2018-12-04T17:01:54.874Z,4.10
2018-12-04T17:04:26.594Z,3.27
2018-12-04T17:06:59.538Z,3.03
2018-12-04T17:25:22.846Z,3.37
2018-12-04T17:27:54.859Z,3.27
2018-12-04T17:30:29.458Z,2.80
2018-12-04T17:32:58.058Z,3.08
2018-12-04T17:35:27.066Z,3.33
2018-12-04T17:37:55.810Z,2.60
2018-12-04T17:40:24.415Z,3.00
2018-12-04T17:42:53.091Z,2.87
2018-12-04T17:45:21.698Z,3.30
2018-12-04T17:47:50.283Z,3.10
2018-12-04T17:50:18.924Z,3.07
2018-12-04T17:52:47.539Z,3.27
2018-12-04T17:55:16.076Z,3.30
2018-12-04T17:57:44.675Z,3.27
2018-12-04T18:00:13.702Z,3.08
2018-12-04T18:02:42.230Z,2.80
2018-12-04T18:05:32.837Z,3.20
2018-12-04T18:08:01.429Z,3.47
2018-12-04T18:10:29.985Z,3.30
2018-12-04T18:12:58.573Z,3.10
2018-12-04T18:15:27.186Z,3.55
2018-12-04T18:17:56.086Z,3.30
2018-12-04T18:20:54.409Z,2.85
2018-12-04T18:23:28.464Z,3.70
2018-12-04T18:25:59.449Z,4.20
2018-12-04T18:28:39.977Z,4.25
2018-12-04T18:31:40.052Z,3.27
2018-12-04T18:34:08.977Z,3.10
2018-12-04T18:36:37.657Z,2.90
2018-12-04T18:39:08.329Z,3.53
2018-12-04T18:41:37.253Z,2.73
2018-12-04T18:46:58.486Z,2.90
2018-12-04T18:49:27.057Z,2.70
2018-12-04T18:51:55.945Z,3.37
2018-12-04T18:54:24.584Z,3.77
2018-12-04T18:56:53.217Z,3.20
2018-12-04T18:59:21.833Z,3.17
2018-12-04T19:01:50.440Z,3.23
2018-12-04T19:04:19.069Z,2.97
2018-12-04T19:06:47.638Z,3.42
2018-12-04T19:09:16.195Z,3.27
2018-12-04T19:11:44.737Z,3.50
2018-12-04T19:14:13.515Z,3.83
2018-12-04T19:16:42.105Z,3.10
2018-12-04T19:19:10.697Z,3.70
2018-12-04T19:21:39.325Z,3.17
2018-12-04T19:24:07.929Z,3.40
2018-12-04T19:26:38.755Z,2.77
2018-12-04T19:29:09.565Z,3.03
2018-12-04T19:31:39.800Z,4.25
2018-12-04T19:37:13.805Z,3.87
2018-12-04T19:39:42.541Z,3.17
2018-12-04T19:42:11.117Z,3.13
2018-12-04T19:44:39.901Z,3.30
2018-12-04T19:47:08.725Z,3.27
2018-12-04T19:49:37.348Z,2.80
2018-12-04T19:52:06.075Z,3.70
2018-12-04T19:54:34.693Z,3.03
2018-12-04T19:57:03.381Z,3.20
2018-12-04T19:59:32.752Z,3.10
2018-12-04T20:02:01.320Z,3.23
2018-12-04T20:04:31.562Z,3.40
2018-12-04T20:07:00.322Z,3.53
2018-12-04T20:09:28.876Z,2.97
2018-12-04T20:11:57.825Z,2.77
2018-12-04T20:14:26.815Z,2.70
2018-12-04T20:16:55.775Z,2.97
2018-12-04T20:22:27.955Z,3.07
2018-12-04T20:25:07.727Z,3.27
2018-12-04T20:30:43.904Z,3.17
2018-12-04T20:33:12.467Z,2.33
2018-12-04T20:35:41.152Z,2.47
2018-12-04T20:38:18.763Z,2.90
2018-12-04T20:40:47.499Z,2.43
2018-12-04T21:03:16.806Z,3.13
2018-12-04T21:05:45.819Z,2.70
2018-12-04T21:08:15.994Z,2.50
2018-12-04T21:10:56.074Z,2.53
2018-12-04T22:13:34.629Z,2.57
2018-12-04T22:16:08.534Z,2.33
2018-12-04T22:18:37.466Z,2.93
2018-12-04T22:21:06.150Z,2.33
2018-12-04T22:23:34.874Z,3.13
2018-12-04T22:26:03.558Z,2.67
2018-12-04T22:28:32.062Z,2.23
2018-12-04T22:31:00.694Z,2.20
2018-12-04T22:33:29.318Z,2.70
2018-12-04T22:35:57.966Z,3.07
2018-12-04T22:38:26.902Z,2.87
2018-12-04T22:40:55.441Z,2.93
2018-12-04T22:43:24.453Z,2.53
2018-12-04T22:45:53.601Z,2.93
2018-12-04T22:48:22.177Z,2.37
2018-12-04T22:50:50.753Z,2.17
2018-12-04T22:53:19.313Z,2.13
2018-12-04T22:55:47.817Z,1.70
2018-12-04T22:58:16.358Z,2.27
2018-12-04T23:00:45.270Z,2.30
2018-12-04T23:03:13.893Z,1.97
2018-12-04T23:05:42.417Z,2.57
2018-12-04T23:08:10.957Z,2.23
2018-12-04T23:10:39.903Z,1.30
2018-12-04T23:13:08.509Z,2.30
2018-12-04T23:15:37.758Z,2.47
2018-12-04T23:18:06.301Z,2.27
2018-12-04T23:20:34.925Z,2.37
2018-12-04T23:23:03.561Z,2.60
2018-12-04T23:25:32.182Z,2.27
2018-12-04T23:28:00.793Z,2.10
2018-12-04T23:30:31.205Z,2.03
2018-12-04T23:32:59.995Z,2.30
2018-12-04T23:35:28.662Z,2.13
2018-12-04T23:37:57.266Z,2.05
2018-12-04T23:40:25.850Z,2.03
2018-12-04T23:42:54.486Z,1.97
2018-12-04T23:45:23.110Z,2.30
2018-12-04T23:47:51.702Z,1.83
2018-12-04T23:50:20.262Z,1.80
2018-12-04T23:52:48.778Z,2.00
2018-12-04T23:55:17.469Z,2.20
2018-12-04T23:57:46.010Z,1.90
